createdAt,value
2022-08-18T00:02:13.788Z,95453.75
2022-08-18T00:04:49.022Z,95441.69
2022-08-18T00:07:21.473Z,95446.63
2022-08-18T00:09:49.605Z,95447.75
2022-08-18T00:12:19.670Z,95449.66
2022-08-18T00:14:47.809Z,95455.38
2022-08-18T00:17:16.246Z,95453.47
2022-08-18T00:19:46.316Z,95451.41
2022-08-18T00:22:16.866Z,95450.16
2022-08-18T00:24:48.448Z,95443.47
2022-08-18T00:27:22.970Z,95453.03
2022-08-18T00:29:52.269Z,95449.06
2022-08-18T00:32:21.804Z,95452.44
2022-08-18T00:34:49.894Z,95452.56
2022-08-18T00:37:18.077Z,95444.31
2022-08-18T00:39:48.222Z,95443.84
2022-08-18T00:42:26.933Z,95448.75
2022-08-18T00:44:58.480Z,95439.22
2022-08-18T00:47:41.194Z,95444.44
2022-08-18T00:50:15.781Z,95444.94
2022-08-18T00:52:46.519Z,95446.84
2022-08-18T00:55:18.135Z,95451.31
2022-08-18T00:57:46.692Z,95460.09
2022-08-18T01:00:15.708Z,95455.16
2022-08-18T01:02:44.680Z,95467.41
2022-08-18T01:05:17.337Z,95460.56
2022-08-18T01:07:47.811Z,95463.94
2022-08-18T01:10:19.113Z,95461.06
2022-08-18T01:12:48.680Z,95460.59
2022-08-18T01:15:29.432Z,95450.88
2022-08-18T01:18:17.084Z,95455.03
2022-08-18T01:21:06.080Z,95449.16
2022-08-18T01:23:35.690Z,95441.53
2022-08-18T01:26:04.476Z,95441.38
2022-08-18T01:28:33.903Z,95452.97
2022-08-18T01:31:02.273Z,95448.19
2022-08-18T01:33:32.836Z,95451.06
2022-08-18T01:36:02.727Z,95451.69
2022-08-18T01:38:32.212Z,95443.09
2022-08-18T01:41:26.908Z,95439.94
2022-08-18T01:43:50.287Z,95438.84
2022-08-18T01:46:20.122Z,95440.09
2022-08-18T01:48:48.393Z,95439.59
2022-08-18T01:51:16.695Z,95441.84
2022-08-18T01:53:45.271Z,95443.13
2022-08-18T01:56:17.738Z,95442.19
2022-08-18T01:58:47.777Z,95439.00
2022-08-18T02:01:16.161Z,95437.72
2022-08-18T02:03:46.798Z,95435.03
2022-08-18T02:06:17.085Z,95435.03
2022-08-18T02:08:46.505Z,95438.19
2022-08-18T02:11:23.315Z,95431.84
2022-08-18T02:13:51.675Z,95436.00
2022-08-18T02:16:19.863Z,95437.09
2022-08-18T02:18:48.952Z,95419.44
2022-08-18T02:21:19.381Z,95429.63
2022-08-18T02:23:52.989Z,95429.44
2022-08-18T02:26:23.546Z,95424.69
2022-08-18T02:28:51.697Z,95426.13
2022-08-18T02:31:21.085Z,95423.44
2022-08-18T02:33:52.236Z,95420.41
2022-08-18T02:36:21.269Z,95414.84
2022-08-18T02:38:54.795Z,95416.25
2022-08-18T02:41:30.162Z,95416.59
2022-08-18T02:43:58.579Z,95405.78
2022-08-18T02:46:29.960Z,95414.19
2022-08-18T02:49:00.474Z,95401.28
2022-08-18T02:51:28.662Z,95402.72
2022-08-18T02:53:59.342Z,95395.41
2022-08-18T02:56:41.458Z,95396.88
2022-08-18T02:59:12.435Z,95394.00
2022-08-18T03:01:41.870Z,95391.91
2022-08-18T03:04:11.140Z,95391.44
2022-08-18T03:06:39.523Z,95386.03
2022-08-18T03:09:08.589Z,95386.03
2022-08-18T03:11:38.271Z,95380.97
2022-08-18T03:14:08.703Z,95379.38
2022-08-18T03:16:52.642Z,95373.19
2022-08-18T03:19:23.991Z,95381.09
2022-08-18T03:21:52.907Z,95377.13
2022-08-18T03:24:22.898Z,95378.88
2022-08-18T03:26:53.922Z,95379.19
2022-08-18T03:29:22.457Z,95376.00
2022-08-18T03:31:50.723Z,95386.31
2022-08-18T03:34:20.711Z,95387.78
2022-08-18T03:36:49.335Z,95388.09
2022-08-18T03:39:17.721Z,95381.41
2022-08-18T03:41:58.617Z,95381.72
2022-08-18T03:44:31.640Z,95386.31
2022-08-18T03:47:00.297Z,95384.72
2022-08-18T03:49:28.455Z,95378.69
2022-08-18T03:51:57.132Z,95387.59
2022-08-18T03:54:25.650Z,95376.50
2022-08-18T03:56:54.464Z,95378.41
2022-08-18T03:59:24.090Z,95379.38
2022-08-18T04:01:55.085Z,95380.00
2022-08-18T04:04:24.394Z,95378.72
2022-08-18T04:06:55.417Z,95388.91
2022-08-18T04:09:24.572Z,95386.69
2022-08-18T04:11:53.029Z,95386.69
2022-08-18T04:14:21.899Z,95387.78
2022-08-18T04:16:50.152Z,95388.75
2022-08-18T04:19:26.520Z,95389.22
2022-08-18T04:21:56.173Z,95391.28
2022-08-18T04:24:26.180Z,95390.84
2022-08-18T04:26:54.846Z,95392.28
2022-08-18T04:29:23.098Z,95394.00
2022-08-18T04:31:52.019Z,95392.28
2022-08-18T04:34:22.915Z,95397.50
2022-08-18T04:36:54.049Z,95397.84
2022-08-18T04:39:22.922Z,95405.94
2022-08-18T04:41:51.277Z,95414.63
2022-08-18T04:44:19.641Z,95407.31
2022-08-18T04:46:49.387Z,95423.50
2022-08-18T04:49:17.993Z,95432.06
2022-08-18T04:52:31.039Z,95440.34
2022-08-18T04:54:57.051Z,95424.03
2022-08-18T04:57:26.301Z,95424.72
2022-08-18T04:59:54.579Z,95422.97
2022-08-18T05:02:24.348Z,95432.38
2022-08-18T05:04:52.727Z,95438.09
2022-08-18T05:07:22.790Z,95442.41
2022-08-18T05:09:52.058Z,95439.38
2022-08-18T05:12:20.419Z,95441.09
2022-08-18T05:14:53.995Z,95449.84
2022-08-18T05:17:22.258Z,95439.59
2022-08-18T05:19:52.156Z,95434.44
2022-08-18T05:22:26.464Z,95447.94
2022-08-18T05:24:58.311Z,95452.66
2022-08-18T05:27:26.511Z,95450.72
2022-08-18T05:29:55.495Z,95449.53
2022-08-18T05:32:36.954Z,95450.25
2022-08-18T05:35:14.233Z,95442.06
2022-08-18T05:37:48.503Z,95445.97
2022-08-18T05:40:16.813Z,95436.97
2022-08-18T05:42:45.043Z,95439.16
2022-08-18T05:45:17.691Z,95443.56
2022-08-18T05:47:45.915Z,95451.16
2022-08-18T05:50:16.594Z,95451.75
2022-08-18T05:52:51.047Z,95452.00
2022-08-18T05:55:39.583Z,95459.16
2022-08-18T05:58:11.450Z,95460.19
2022-08-18T06:00:40.496Z,95470.06
2022-08-18T06:03:10.201Z,95467.47
2022-08-18T06:05:42.112Z,95470.44
2022-08-18T06:08:13.597Z,95464.81
2022-08-18T06:10:44.023Z,95468.56
2022-08-18T06:13:12.477Z,95464.84
2022-08-18T06:15:49.764Z,95473.31
2022-08-18T06:18:30.835Z,95476.28
2022-08-18T06:21:11.643Z,95483.53
2022-08-18T06:23:43.709Z,95490.34
2022-08-18T06:26:15.269Z,95487.84
2022-08-18T06:29:01.002Z,95494.75
2022-08-18T06:31:31.906Z,95498.38
2022-08-18T06:34:05.113Z,95493.19
2022-08-18T06:36:39.094Z,95502.41
2022-08-18T06:39:13.235Z,95505.34
2022-08-18T06:41:44.418Z,95506.94
2022-08-18T06:44:15.131Z,95507.03
2022-08-18T06:46:46.017Z,95520.75
2022-08-18T06:49:22.992Z,95522.00
2022-08-18T06:51:51.338Z,95524.38
2022-08-18T06:54:31.501Z,95523.78
2022-08-18T06:56:59.930Z,95521.31
2022-08-18T06:59:30.784Z,95531.16
2022-08-18T07:02:02.061Z,95528.91
2022-08-18T07:04:36.819Z,95529.22
2022-08-18T07:07:17.517Z,95548.28
2022-08-18T07:09:47.114Z,95561.88
2022-08-18T07:12:22.290Z,95555.19
2022-08-18T07:14:51.813Z,95547.81
2022-08-18T07:17:43.351Z,95544.09
2022-08-18T07:20:20.386Z,95542.63
2022-08-18T07:22:56.150Z,95540.91
2022-08-18T07:25:27.713Z,95532.63
2022-08-18T07:27:57.192Z,95534.66
2022-08-18T07:30:34.085Z,95528.22
2022-08-18T07:33:08.261Z,95516.88
2022-08-18T07:35:39.393Z,95528.78
2022-08-18T07:38:40.895Z,95537.00
2022-08-18T07:41:02.981Z,95546.28
2022-08-18T07:43:35.512Z,95553.59
2022-08-18T07:46:06.525Z,95561.84
2022-08-18T07:48:38.524Z,95560.78
2022-08-18T07:51:13.727Z,95550.59
2022-08-18T07:53:55.738Z,95543.13
2022-08-18T07:56:33.905Z,95552.66
2022-08-18T07:59:04.585Z,95553.13
2022-08-18T08:01:35.287Z,95552.78
2022-08-18T08:04:08.566Z,95550.97
2022-08-18T08:06:40.375Z,95558.22
2022-08-18T08:09:12.717Z,95548.16
2022-08-18T08:11:49.761Z,95538.66
2022-08-18T08:14:28.002Z,95543.97
2022-08-18T08:17:00.968Z,95548.19
2022-08-18T08:20:00.363Z,95556.38
2022-08-18T08:22:32.173Z,95554.34
2022-08-18T08:25:10.735Z,95553.13
2022-08-18T08:28:00.450Z,95555.63
2022-08-18T08:30:29.298Z,95549.28
2022-08-18T08:33:03.536Z,95549.38
2022-08-18T08:35:48.965Z,95543.06
2022-08-18T08:38:40.354Z,95535.25
2022-08-18T08:41:11.139Z,95529.69
2022-08-18T08:43:42.675Z,95518.13
2022-08-18T08:46:12.415Z,95505.56
2022-08-18T08:48:42.443Z,95502.41
2022-08-18T08:51:20.763Z,95511.31
2022-08-18T08:53:50.508Z,95516.22
2022-08-18T08:56:20.168Z,95515.06
2022-08-18T08:58:50.613Z,95514.41
2022-08-18T09:01:24.808Z,95509.53
2022-08-18T09:03:57.200Z,95515.63
2022-08-18T09:06:26.904Z,95516.56
2022-08-18T09:09:16.211Z,95512.13
2022-08-18T09:12:07.030Z,95519.03
2022-08-18T09:14:56.283Z,95509.19
2022-08-18T09:17:42.538Z,95509.63
2022-08-18T09:20:25.781Z,95512.66
2022-08-18T09:22:55.651Z,95520.69
2022-08-18T09:25:35.249Z,95524.13
2022-08-18T09:28:12.383Z,95514.84
2022-08-18T09:30:47.511Z,95496.69
2022-08-18T09:33:34.908Z,95495.19
2022-08-18T09:39:40.230Z,95543.00
2022-08-18T09:42:10.563Z,95547.78
2022-08-18T09:44:58.621Z,95558.09
2022-08-18T09:48:00.626Z,95553.09
2022-08-18T09:50:57.175Z,95563.19
2022-08-18T09:53:38.058Z,95578.97
2022-08-18T09:56:08.208Z,95588.47
2022-08-18T09:58:56.643Z,95576.00
2022-08-18T10:01:34.542Z,95569.91
2022-08-18T10:04:32.329Z,95558.19
2022-08-18T10:07:35.446Z,95565.59
2022-08-18T10:10:58.831Z,95561.97
2022-08-18T10:13:05.150Z,95562.09
2022-08-18T10:15:40.804Z,95571.63
2022-08-18T10:18:41.358Z,95579.66
2022-08-18T10:21:12.988Z,95565.63
2022-08-18T10:24:03.123Z,95563.34
2022-08-18T10:27:10.958Z,95558.34
2022-08-18T10:30:01.872Z,95553.03
2022-08-18T10:32:44.328Z,95542.38
2022-08-18T10:35:58.387Z,95525.63
2022-08-18T10:38:49.344Z,95517.09
2022-08-18T10:41:25.191Z,95505.69
2022-08-18T10:43:55.456Z,95515.50
2022-08-18T10:46:30.670Z,95527.09
2022-08-18T10:49:09.413Z,95544.88
2022-08-18T10:52:00.118Z,95556.78
2022-08-18T10:54:34.063Z,95552.34
2022-08-18T10:57:09.438Z,95539.75
2022-08-18T10:59:48.975Z,95533.63
2022-08-18T11:02:40.039Z,95528.84
2022-08-18T11:05:11.021Z,95528.50
2022-08-18T11:07:44.666Z,95531.25
2022-08-18T11:10:57.636Z,95533.97
2022-08-18T11:13:10.880Z,95532.56
2022-08-18T11:15:48.953Z,95539.16
2022-08-18T11:18:30.276Z,95539.16
2022-08-18T11:21:27.076Z,95548.34
2022-08-18T11:24:10.183Z,95551.41
2022-08-18T11:26:39.614Z,95571.59
2022-08-18T11:29:23.303Z,95568.75
2022-08-18T11:31:53.497Z,95555.72
2022-08-18T11:34:26.981Z,95561.06
2022-08-18T11:36:59.335Z,95555.66
2022-08-18T11:39:37.731Z,95545.78
2022-08-18T11:42:07.552Z,95544.88
2022-08-18T11:44:45.219Z,95514.94
2022-08-18T11:47:17.124Z,95510.75
2022-08-18T11:49:58.297Z,95503.13
2022-08-18T11:55:24.390Z,95529.94
2022-08-18T11:57:56.072Z,95528.66
2022-08-18T12:01:02.907Z,95530.91
2022-08-18T12:03:36.444Z,95520.38
2022-08-18T12:06:19.407Z,95522.31
2022-08-18T12:08:59.519Z,95530.06
2022-08-18T12:11:29.481Z,95515.66
2022-08-18T12:14:01.983Z,95515.00
2022-08-18T12:16:54.047Z,95502.34
2022-08-18T12:19:24.233Z,95496.84
2022-08-18T12:21:54.517Z,95500.44
2022-08-18T12:24:26.188Z,95499.09
2022-08-18T12:27:00.923Z,95503.97
2022-08-18T12:29:36.690Z,95508.94
2022-08-18T12:32:18.044Z,95506.34
2022-08-18T12:35:07.172Z,95490.91
2022-08-18T12:40:26.931Z,95484.72
2022-08-18T12:42:55.184Z,95477.66
2022-08-18T12:45:25.881Z,95476.66
2022-08-18T12:47:57.119Z,95469.50
2022-08-18T12:50:31.120Z,95471.38
2022-08-18T12:53:00.896Z,95469.47
2022-08-18T12:55:29.768Z,95470.38
2022-08-18T12:57:57.928Z,95476.81
2022-08-18T13:00:28.978Z,95487.19
2022-08-18T13:02:59.330Z,95500.72
2022-08-18T13:05:30.091Z,95502.34
2022-08-18T13:07:59.381Z,95498.66
2022-08-18T13:10:45.689Z,95504.66
2022-08-18T13:13:16.497Z,95501.44
2022-08-18T13:15:57.913Z,95503.44
2022-08-18T13:18:29.457Z,95498.44
2022-08-18T13:20:58.341Z,95503.34
2022-08-18T13:23:27.616Z,95497.19
2022-08-18T13:26:01.465Z,95496.06
2022-08-18T13:28:33.378Z,95499.41
2022-08-18T13:31:04.238Z,95489.94
2022-08-18T13:33:56.662Z,95499.69
2022-08-18T13:36:23.511Z,95501.84
2022-08-18T13:38:54.490Z,95496.03
2022-08-18T13:43:52.825Z,95486.91
2022-08-18T13:46:24.283Z,95482.50
2022-08-18T13:49:02.395Z,95484.88
2022-08-18T13:51:31.550Z,95477.59
2022-08-18T13:54:26.592Z,95481.19
2022-08-18T13:56:51.800Z,95479.31
2022-08-18T13:59:20.825Z,95473.75
2022-08-18T14:01:52.555Z,95467.66
2022-08-18T14:04:27.901Z,95460.56
2022-08-18T14:07:00.472Z,95455.72
2022-08-18T14:09:36.120Z,95461.97
2022-08-18T14:12:06.735Z,95465.47
2022-08-18T14:14:44.793Z,95464.94
2022-08-18T14:17:15.093Z,95458.09
2022-08-18T14:20:02.942Z,95451.72
2022-08-18T14:22:48.308Z,95446.19
2022-08-18T14:25:34.086Z,95439.34
2022-08-18T14:28:03.900Z,95434.63
2022-08-18T14:30:32.477Z,95447.25
2022-08-18T14:33:01.223Z,95450.44
2022-08-18T14:36:04.392Z,95452.81
2022-08-18T14:38:19.375Z,95444.31
2022-08-18T14:40:47.858Z,95448.59
2022-08-18T14:43:16.832Z,95439.09
2022-08-18T14:45:48.884Z,95438.88
2022-08-18T14:48:19.127Z,95437.88
2022-08-18T14:50:50.323Z,95434.94
2022-08-18T14:53:20.326Z,95436.88
2022-08-18T14:55:52.218Z,95447.50
2022-08-18T14:58:20.757Z,95430.94
2022-08-18T15:00:53.743Z,95431.84
2022-08-18T15:03:30.972Z,95434.56
2022-08-18T15:06:04.668Z,95426.28
2022-08-18T15:08:35.417Z,95423.41
2022-08-18T15:11:06.162Z,95422.28
2022-08-18T15:13:41.486Z,95425.75
2022-08-18T15:16:13.825Z,95416.72
2022-08-18T15:18:42.196Z,95418.88
2022-08-18T15:21:35.537Z,95413.31
2022-08-18T15:24:24.826Z,95409.69
2022-08-18T15:26:57.408Z,95404.59
2022-08-18T15:29:29.180Z,95384.38
2022-08-18T15:32:05.608Z,95385.34
2022-08-18T15:34:46.909Z,95377.03
2022-08-18T15:37:24.284Z,95370.56
2022-08-18T15:40:05.407Z,95360.72
2022-08-18T15:42:33.741Z,95361.97
2022-08-18T15:45:12.108Z,95361.88
2022-08-18T15:47:42.376Z,95373.59
2022-08-18T15:50:25.543Z,95361.31
2022-08-18T15:52:58.018Z,95363.97
2022-08-18T15:55:28.869Z,95347.78
2022-08-18T15:57:58.289Z,95348.75
2022-08-18T16:00:27.551Z,95343.09
2022-08-18T16:02:58.286Z,95341.47
2022-08-18T16:05:28.637Z,95344.28
2022-08-18T16:08:01.415Z,95349.00
2022-08-18T16:10:33.416Z,95335.09
2022-08-18T16:13:04.939Z,95334.31
2022-08-18T16:15:36.909Z,95345.09
2022-08-18T16:18:05.677Z,95339.72
2022-08-18T16:20:33.955Z,95333.69
2022-08-18T16:23:03.615Z,95329.63
2022-08-18T16:25:32.133Z,95333.09
2022-08-18T16:28:00.504Z,95332.75
2022-08-18T16:30:29.358Z,95332.00
2022-08-18T16:33:01.385Z,95331.22
2022-08-18T16:35:29.550Z,95327.78
2022-08-18T16:37:58.330Z,95327.09
2022-08-18T16:40:29.884Z,95320.75
2022-08-18T16:43:00.913Z,95339.69
2022-08-18T16:45:29.063Z,95332.00
2022-08-18T16:47:57.313Z,95329.81
2022-08-18T16:50:26.077Z,95323.06
2022-08-18T16:52:54.379Z,95321.41
2022-08-18T16:55:23.048Z,95323.28
2022-08-18T16:58:13.576Z,95326.06
2022-08-18T17:01:00.507Z,95322.28
2022-08-18T17:03:45.971Z,95329.75
2022-08-18T17:06:15.533Z,95336.91
2022-08-18T17:08:43.889Z,95338.47
2022-08-18T17:11:13.925Z,95342.91
2022-08-18T17:13:43.582Z,95340.78
2022-08-18T17:16:11.820Z,95344.34
2022-08-18T17:18:40.018Z,95344.53
2022-08-18T17:21:09.163Z,95351.47
2022-08-18T17:23:38.787Z,95332.75
2022-08-18T17:26:07.678Z,95332.34
2022-08-18T17:28:50.320Z,95326.16
2022-08-18T17:31:20.999Z,95329.16
2022-08-18T17:33:49.067Z,95341.72
2022-08-18T17:36:20.659Z,95340.06
2022-08-18T17:38:57.398Z,95338.84
2022-08-18T17:41:26.026Z,95338.84
2022-08-18T17:43:56.259Z,95337.88
2022-08-18T17:46:32.264Z,95341.75
2022-08-18T17:49:02.146Z,95342.88
2022-08-18T17:51:37.427Z,95343.22
2022-08-18T17:54:29.743Z,95339.28
2022-08-18T17:57:01.550Z,95344.47
2022-08-18T17:59:51.066Z,95348.69
2022-08-18T18:02:29.672Z,95335.31
2022-08-18T18:05:00.103Z,95339.09
2022-08-18T18:07:30.492Z,95338.53
2022-08-18T18:10:00.784Z,95335.31
2022-08-18T18:12:29.953Z,95333.28
2022-08-18T18:14:58.479Z,95337.50
2022-08-18T18:17:29.783Z,95335.13
2022-08-18T18:20:15.718Z,95344.44
2022-08-18T18:22:44.558Z,95339.31
2022-08-18T18:25:13.666Z,95348.94
2022-08-18T18:27:43.741Z,95346.94
2022-08-18T18:30:27.841Z,95358.16
2022-08-18T18:33:00.213Z,95360.88
2022-08-18T18:35:29.091Z,95352.97
2022-08-18T18:37:58.228Z,95350.16
2022-08-18T18:40:29.344Z,95359.47
2022-08-18T18:42:57.726Z,95352.31
2022-08-18T18:45:28.309Z,95355.38
2022-08-18T18:48:05.558Z,95355.06
2022-08-18T18:50:55.516Z,95352.59
2022-08-18T18:53:28.500Z,95351.34
2022-08-18T18:56:02.527Z,95358.53
2022-08-18T18:58:37.587Z,95368.63
2022-08-18T19:01:07.916Z,95377.13
2022-08-18T19:03:38.886Z,95377.44
2022-08-18T19:06:14.483Z,95373.53
2022-08-18T19:08:46.546Z,95380.44
2022-08-18T19:11:17.589Z,95371.28
2022-08-18T19:13:54.156Z,95370.03
2022-08-18T19:16:24.679Z,95368.78
2022-08-18T19:18:57.844Z,95379.00
2022-08-18T19:22:05.815Z,95375.38
2022-08-18T19:24:31.236Z,95375.75
2022-08-18T19:27:01.713Z,95371.00
2022-08-18T19:29:31.661Z,95369.75
2022-08-18T19:32:05.315Z,95367.28
2022-08-18T19:34:37.591Z,95367.13
2022-08-18T19:37:26.713Z,95363.53
2022-08-18T19:40:04.408Z,95363.88
2022-08-18T19:42:35.521Z,95368.16
2022-08-18T19:45:16.499Z,95365.44
2022-08-18T19:47:48.003Z,95358.75
2022-08-18T19:50:20.143Z,95346.75
2022-08-18T19:52:59.790Z,95349.03
2022-08-18T19:55:33.472Z,95343.94
2022-08-18T19:58:12.247Z,95343.47
2022-08-18T20:00:44.885Z,95348.03
2022-08-18T20:03:40.202Z,95346.66
2022-08-18T20:06:34.529Z,95342.72
2022-08-18T20:09:25.295Z,95332.66
2022-08-18T20:12:17.581Z,95337.28
2022-08-18T20:14:45.851Z,95330.59
2022-08-18T20:17:19.989Z,95338.28
2022-08-18T20:20:06.038Z,95324.50
2022-08-18T20:22:39.124Z,95326.75
2022-08-18T20:25:21.552Z,95335.25
2022-08-18T20:27:51.244Z,95339.34
2022-08-18T20:30:24.721Z,95344.97
2022-08-18T20:33:10.816Z,95342.25
2022-08-18T20:35:40.929Z,95362.41
2022-08-18T20:38:16.343Z,95351.19
2022-08-18T20:40:45.343Z,95349.84
2022-08-18T20:43:27.634Z,95348.59
2022-08-18T20:46:07.813Z,95344.28
2022-08-18T20:48:44.143Z,95344.28
2022-08-18T20:51:12.622Z,95346.91
2022-08-18T20:54:01.363Z,95342.94
2022-08-18T20:56:43.430Z,95349.50
2022-08-18T20:59:20.282Z,95351.22
2022-08-18T21:01:56.122Z,95346.56
2022-08-18T21:04:49.513Z,95354.38
2022-08-18T21:07:36.271Z,95362.53
2022-08-18T21:10:12.680Z,95359.81
2022-08-18T21:12:52.456Z,95376.44
2022-08-18T21:15:21.849Z,95375.97
2022-08-18T21:17:58.137Z,95377.44
2022-08-18T21:20:26.374Z,95379.34
2022-08-18T21:23:05.132Z,95380.03
2022-08-18T21:25:34.661Z,95388.53
2022-08-18T21:28:03.960Z,95398.59
2022-08-18T21:30:33.025Z,95393.94
2022-08-18T21:33:02.103Z,95400.47
2022-08-18T21:35:32.642Z,95388.53
2022-08-18T21:38:01.762Z,95395.53
2022-08-18T21:40:32.346Z,95397.47
2022-08-18T21:43:02.066Z,95389.63
2022-08-18T21:45:30.391Z,95398.59
2022-08-18T21:47:59.907Z,95402.88
2022-08-18T21:50:29.607Z,95402.09
2022-08-18T21:52:58.767Z,95404.66
2022-08-18T21:55:30.358Z,95416.16
2022-08-18T21:58:05.843Z,95404.97
2022-08-18T22:00:35.992Z,95412.78
2022-08-18T22:03:21.809Z,95403.84
2022-08-18T22:05:59.908Z,95408.16
2022-08-18T22:08:29.432Z,95415.97
2022-08-18T22:11:44.204Z,95406.22
2022-08-18T22:14:36.254Z,95405.78
2022-08-18T22:17:29.158Z,95388.59
2022-08-18T22:19:57.667Z,95384.28
2022-08-18T22:22:43.515Z,95395.47
2022-08-18T22:25:12.230Z,95408.91
2022-08-18T22:27:40.465Z,95408.22
2022-08-18T22:30:10.679Z,95402.53
2022-08-18T22:32:39.322Z,95401.28
2022-08-18T22:35:09.086Z,95399.44
2022-08-18T22:37:40.853Z,95404.72
2022-08-18T22:40:10.711Z,95408.25
2022-08-18T22:42:38.998Z,95415.16
2022-08-18T22:45:12.367Z,95423.63
2022-08-18T22:47:43.676Z,95426.31
2022-08-18T22:50:13.529Z,95418.19
2022-08-18T22:52:42.829Z,95420.75
2022-08-18T22:55:12.535Z,95417.94
2022-08-18T22:57:41.077Z,95412.16
2022-08-18T23:00:14.543Z,95406.28
2022-08-18T23:02:43.123Z,95416.78
2022-08-18T23:05:12.038Z,95406.16
2022-08-18T23:07:40.202Z,95397.56
2022-08-18T23:10:13.597Z,95393.13
2022-08-18T23:12:42.722Z,95389.16
2022-08-18T23:15:12.571Z,95394.13
2022-08-18T23:17:40.756Z,95387.56
2022-08-18T23:20:11.411Z,95384.22
2022-08-18T23:22:39.855Z,95383.53
2022-08-18T23:25:09.487Z,95390.44
2022-08-18T23:27:37.974Z,95397.31
2022-08-18T23:30:06.871Z,95401.59
2022-08-18T23:32:36.550Z,95402.06
2022-08-18T23:35:05.179Z,95399.69
2022-08-18T23:37:33.355Z,95394.91
2022-08-18T23:40:01.594Z,95390.16
2022-08-18T23:42:31.648Z,95389.91
2022-08-18T23:45:03.235Z,95384.00
2022-08-18T23:47:31.383Z,95396.31
2022-08-18T23:50:01.715Z,95403.34
2022-08-18T23:52:29.872Z,95394.84
2022-08-18T23:54:57.931Z,95397.69
2022-08-18T23:57:26.124Z,95389.25
2022-08-18T23:59:54.559Z,95380.31
